PLT2730 SBSP-SBJV
Flight info
| Callsign | PLT2730 |
|---|---|
| Flight time | 0h 39m |
| Altitude | 28000 |
| Route | SOVSI UZ85 RAXIT |
| Aircraft | A320/M-SDE3FGHIRWY/LB1 |
Departure
| Time | 2026-05-03 20:38 |
|---|---|
| Airport | Congonhas–Deputado Freitas Nobre Airport (SBSP) |
Arrival
| Time | 2026-05-03 21:17 |
|---|---|
| Airport | Lauro Carneiro de Loyola Airport (SBJV) |
| Time | Latitude | Longitude | Altitude | Speed | Heading |
|---|---|---|---|---|---|
| 2026-05-03 20:22 | -23.62689 | -46.65846 | 2574 ft | 0 kts | 236° |
| 2026-05-03 20:31 | -23.62690 | -46.65848 | 2601 ft | 4 kts | 237° |
| 2026-05-03 20:32 | -23.62683 | -46.65836 | 2601 ft | 4 kts | 243° |
| 2026-05-03 20:32 | -23.62676 | -46.65810 | 2601 ft | 4 kts | 280° |
| 2026-05-03 20:32 | -23.62686 | -46.65789 | 2601 ft | 0 kts | 328° |
| 2026-05-03 20:34 | -23.62669 | -46.65793 | 2601 ft | 13 kts | 347° |
| 2026-05-03 20:34 | -23.62573 | -46.65833 | 2601 ft | 14 kts | 331° |
| 2026-05-03 20:34 | -23.62489 | -46.65882 | 2601 ft | 13 kts | 327° |
| 2026-05-03 20:35 | -23.62414 | -46.65930 | 2601 ft | 12 kts | 327° |
| 2026-05-03 20:35 | -23.62348 | -46.65977 | 2600 ft | 11 kts | 329° |
| 2026-05-03 20:35 | -23.62286 | -46.66018 | 2600 ft | 10 kts | 326° |
| 2026-05-03 20:35 | -23.62229 | -46.66053 | 2600 ft | 9 kts | 335° |
| 2026-05-03 20:36 | -23.62175 | -46.66086 | 2599 ft | 9 kts | 328° |
| 2026-05-03 20:36 | -23.62139 | -46.66116 | 2599 ft | 6 kts | 322° |
| 2026-05-03 20:36 | -23.62107 | -46.66137 | 2590 ft | 6 kts | 339° |
| 2026-05-03 20:36 | -23.62060 | -46.66128 | 2596 ft | 11 kts | 25° |
| 2026-05-03 20:37 | -23.62063 | -46.66066 | 2596 ft | 7 kts | 143° |
| 2026-05-03 20:37 | -23.62171 | -46.65989 | 2599 ft | 51 kts | 147° |
| 2026-05-03 20:37 | -23.62709 | -46.65616 | 2609 ft | 129 kts | 147° |
| 2026-05-03 20:37 | -23.63568 | -46.65047 | 3142 ft | 147 kts | 148° |
| 2026-05-03 20:38 | -23.64459 | -46.64486 | 3958 ft | 152 kts | 151° |
| 2026-05-03 20:38 | -23.65576 | -46.64248 | 4536 ft | 178 kts | 176° |
| 2026-05-03 20:38 | -23.66888 | -46.64292 | 5216 ft | 197 kts | 181° |
| 2026-05-03 20:38 | -23.68318 | -46.64391 | 5542 ft | 217 kts | 182° |
| 2026-05-03 20:39 | -23.69915 | -46.64506 | 5880 ft | 242 kts | 182° |
| 2026-05-03 20:39 | -23.71683 | -46.64626 | 6351 ft | 264 kts | 182° |
| 2026-05-03 20:39 | -23.73561 | -46.64761 | 7029 ft | 275 kts | 187° |
| 2026-05-03 20:39 | -23.75337 | -46.65520 | 7770 ft | 280 kts | 220° |
| 2026-05-03 20:40 | -23.76462 | -46.67236 | 8615 ft | 282 kts | 252° |
| 2026-05-03 20:40 | -23.76988 | -46.69293 | 9560 ft | 282 kts | 256° |
| 2026-05-03 20:40 | -23.77550 | -46.71367 | 10295 ft | 293 kts | 249° |
| 2026-05-03 20:40 | -23.78464 | -46.73420 | 10558 ft | 317 kts | 241° |
| 2026-05-03 20:41 | -23.79685 | -46.75528 | 10858 ft | 337 kts | 237° |
| 2026-05-03 20:41 | -23.81065 | -46.77640 | 11488 ft | 344 kts | 235° |
| 2026-05-03 20:41 | -23.82490 | -46.79766 | 12214 ft | 348 kts | 235° |
| 2026-05-03 20:41 | -23.83912 | -46.81924 | 12947 ft | 351 kts | 236° |
| 2026-05-03 20:42 | -23.85317 | -46.84119 | 13685 ft | 354 kts | 236° |
| 2026-05-03 20:42 | -23.86708 | -46.86355 | 14368 ft | 357 kts | 237° |
| 2026-05-03 20:42 | -23.87956 | -46.88696 | 15002 ft | 358 kts | 246° |
| 2026-05-03 20:42 | -23.88922 | -46.91207 | 15671 ft | 359 kts | 248° |
| 2026-05-03 20:43 | -23.89877 | -46.93703 | 16341 ft | 360 kts | 248° |
| 2026-05-03 20:43 | -23.90864 | -46.96268 | 17009 ft | 362 kts | 247° |
| 2026-05-03 20:43 | -23.91838 | -46.98786 | 17650 ft | 364 kts | 247° |
| 2026-05-03 20:43 | -23.92821 | -47.01318 | 18298 ft | 365 kts | 247° |
| 2026-05-03 20:44 | -23.93822 | -47.03895 | 18884 ft | 367 kts | 247° |
| 2026-05-03 20:44 | -23.94815 | -47.06453 | 19474 ft | 368 kts | 247° |
| 2026-05-03 20:44 | -23.95822 | -47.09049 | 20071 ft | 369 kts | 247° |
| 2026-05-03 20:44 | -23.96820 | -47.11611 | 20694 ft | 369 kts | 247° |
| 2026-05-03 20:45 | -23.97830 | -47.14210 | 21295 ft | 369 kts | 247° |
| 2026-05-03 20:45 | -23.98825 | -47.16781 | 21868 ft | 370 kts | 248° |
| 2026-05-03 20:45 | -23.99831 | -47.19392 | 22465 ft | 371 kts | 247° |
| 2026-05-03 20:45 | -24.00827 | -47.21978 | 23027 ft | 372 kts | 247° |
| 2026-05-03 20:46 | -24.01840 | -47.24605 | 23608 ft | 372 kts | 247° |
| 2026-05-03 20:46 | -24.02838 | -47.27189 | 24065 ft | 373 kts | 248° |
| 2026-05-03 20:46 | -24.03860 | -47.29832 | 24485 ft | 375 kts | 248° |
| 2026-05-03 20:46 | -24.04871 | -47.32450 | 24879 ft | 376 kts | 248° |
| 2026-05-03 20:47 | -24.05884 | -47.35080 | 25255 ft | 378 kts | 249° |
| 2026-05-03 20:47 | -24.06909 | -47.37749 | 25632 ft | 380 kts | 249° |
| 2026-05-03 20:47 | -24.07934 | -47.40416 | 26020 ft | 381 kts | 249° |
| 2026-05-03 20:47 | -24.08961 | -47.43078 | 26399 ft | 383 kts | 248° |
| 2026-05-03 20:48 | -24.10285 | -47.45650 | 26765 ft | 389 kts | 238° |
| 2026-05-03 20:48 | -24.12073 | -47.47932 | 27123 ft | 398 kts | 229° |
| 2026-05-03 20:48 | -24.14258 | -47.49809 | 27459 ft | 408 kts | 219° |
| 2026-05-03 20:48 | -24.16686 | -47.51494 | 27752 ft | 411 kts | 219° |
| 2026-05-03 20:49 | -24.19095 | -47.53160 | 28057 ft | 414 kts | 219° |
| 2026-05-03 20:49 | -24.21555 | -47.54857 | 28215 ft | 415 kts | 220° |
| 2026-05-03 20:49 | -24.23973 | -47.56525 | 28233 ft | 413 kts | 220° |
| 2026-05-03 20:50 | -24.28825 | -47.59890 | 28233 ft | 411 kts | 220° |
| 2026-05-03 20:50 | -24.33632 | -47.63237 | 28233 ft | 411 kts | 220° |
| 2026-05-03 20:51 | -24.38444 | -47.66598 | 28226 ft | 410 kts | 220° |
| 2026-05-03 20:51 | -24.43255 | -47.70007 | 28223 ft | 407 kts | 222° |
| 2026-05-03 20:52 | -24.47772 | -47.73643 | 28220 ft | 403 kts | 225° |
| 2026-05-03 20:52 | -24.52200 | -47.77419 | 28214 ft | 403 kts | 225° |
| 2026-05-03 20:53 | -24.56660 | -47.81177 | 28223 ft | 404 kts | 224° |
| 2026-05-03 20:53 | -24.61145 | -47.84882 | 27627 ft | 401 kts | 224° |
| 2026-05-03 20:53 | -24.63375 | -47.86715 | 26872 ft | 399 kts | 223° |
| 2026-05-03 20:54 | -24.65585 | -47.88528 | 26269 ft | 394 kts | 223° |
| 2026-05-03 20:54 | -24.69927 | -47.92098 | 25103 ft | 385 kts | 222° |
| 2026-05-03 20:54 | -24.72054 | -47.93859 | 24555 ft | 380 kts | 222° |
| 2026-05-03 20:55 | -24.74153 | -47.95601 | 24002 ft | 376 kts | 222° |
| 2026-05-03 20:55 | -24.76224 | -47.97326 | 23354 ft | 372 kts | 222° |
| 2026-05-03 20:55 | -24.78283 | -47.99046 | 22709 ft | 370 kts | 221° |
| 2026-05-03 20:55 | -24.80332 | -48.00756 | 22079 ft | 369 kts | 221° |
| 2026-05-03 20:56 | -24.82371 | -48.02452 | 21479 ft | 367 kts | 221° |
| 2026-05-03 20:56 | -24.84404 | -48.04142 | 20904 ft | 366 kts | 221° |
| 2026-05-03 20:56 | -24.86436 | -48.05827 | 20332 ft | 365 kts | 220° |
| 2026-05-03 20:56 | -24.88454 | -48.07502 | 19784 ft | 363 kts | 220° |
| 2026-05-03 20:57 | -24.90444 | -48.09155 | 19240 ft | 362 kts | 220° |
| 2026-05-03 20:57 | -24.92456 | -48.10828 | 18964 ft | 363 kts | 220° |
| 2026-05-03 20:57 | -24.94480 | -48.12512 | 18735 ft | 365 kts | 219° |
| 2026-05-03 20:57 | -24.96503 | -48.14195 | 18509 ft | 365 kts | 219° |
| 2026-05-03 20:58 | -24.98531 | -48.15886 | 18249 ft | 365 kts | 219° |
| 2026-05-03 20:58 | -25.00555 | -48.17576 | 17986 ft | 364 kts | 219° |
| 2026-05-03 20:58 | -25.02572 | -48.19256 | 17727 ft | 364 kts | 219° |
| 2026-05-03 20:58 | -25.04599 | -48.20943 | 17490 ft | 364 kts | 219° |
| 2026-05-03 20:59 | -25.06626 | -48.22633 | 17231 ft | 365 kts | 220° |
| 2026-05-03 20:59 | -25.08624 | -48.24304 | 16979 ft | 365 kts | 219° |
| 2026-05-03 20:59 | -25.10671 | -48.26013 | 16727 ft | 364 kts | 219° |
| 2026-05-03 20:59 | -25.12667 | -48.27676 | 16483 ft | 364 kts | 219° |
| 2026-05-03 21:00 | -25.14682 | -48.29355 | 16237 ft | 364 kts | 219° |
| 2026-05-03 21:00 | -25.16046 | -48.30494 | 16071 ft | 364 kts | 219° |
| 2026-05-03 21:00 | -25.18716 | -48.32726 | 15752 ft | 363 kts | 219° |
| 2026-05-03 21:00 | -25.20727 | -48.34405 | 15513 ft | 363 kts | 219° |
| 2026-05-03 21:01 | -25.22745 | -48.36086 | 15271 ft | 363 kts | 218° |
| 2026-05-03 21:01 | -25.24930 | -48.37493 | 15036 ft | 365 kts | 206° |
| 2026-05-03 21:01 | -25.27336 | -48.38394 | 14802 ft | 368 kts | 195° |
| 2026-05-03 21:01 | -25.29872 | -48.38822 | 14563 ft | 369 kts | 189° |
| 2026-05-03 21:02 | -25.32416 | -48.39181 | 14338 ft | 369 kts | 189° |
| 2026-05-03 21:02 | -25.34964 | -48.39545 | 14121 ft | 368 kts | 189° |
| 2026-05-03 21:02 | -25.37494 | -48.39909 | 13899 ft | 366 kts | 189° |
| 2026-05-03 21:02 | -25.40025 | -48.40273 | 14018 ft | 368 kts | 189° |
| 2026-05-03 21:03 | -25.42562 | -48.40637 | 13995 ft | 367 kts | 189° |
| 2026-05-03 21:03 | -25.45097 | -48.41002 | 13715 ft | 366 kts | 189° |
| 2026-05-03 21:03 | -25.47619 | -48.41361 | 13449 ft | 364 kts | 189° |
| 2026-05-03 21:03 | -25.50126 | -48.41718 | 13177 ft | 363 kts | 189° |
| 2026-05-03 21:04 | -25.52620 | -48.42074 | 12920 ft | 357 kts | 189° |
| 2026-05-03 21:04 | -25.55035 | -48.42418 | 12789 ft | 343 kts | 189° |
| 2026-05-03 21:04 | -25.57361 | -48.42748 | 12663 ft | 330 kts | 189° |
| 2026-05-03 21:04 | -25.59531 | -48.43229 | 12543 ft | 316 kts | 200° |
| 2026-05-03 21:05 | -25.61493 | -48.44185 | 12384 ft | 303 kts | 212° |
| 2026-05-03 21:05 | -25.63177 | -48.45543 | 12069 ft | 297 kts | 224° |
| 2026-05-03 21:05 | -25.64604 | -48.47180 | 11713 ft | 294 kts | 228° |
| 2026-05-03 21:05 | -25.66005 | -48.48836 | 11348 ft | 293 kts | 228° |
| 2026-05-03 21:06 | -25.67399 | -48.50472 | 10992 ft | 291 kts | 227° |
| 2026-05-03 21:06 | -25.68792 | -48.52099 | 10633 ft | 290 kts | 227° |
| 2026-05-03 21:06 | -25.70176 | -48.53713 | 10275 ft | 288 kts | 227° |
| 2026-05-03 21:06 | -25.71554 | -48.55320 | 9887 ft | 287 kts | 227° |
| 2026-05-03 21:07 | -25.72926 | -48.56923 | 9456 ft | 286 kts | 227° |
| 2026-05-03 21:07 | -25.74285 | -48.58517 | 9119 ft | 283 kts | 228° |
| 2026-05-03 21:07 | -25.75628 | -48.60096 | 8813 ft | 280 kts | 228° |
| 2026-05-03 21:07 | -25.76961 | -48.61668 | 8518 ft | 279 kts | 228° |
| 2026-05-03 21:08 | -25.78288 | -48.63231 | 8223 ft | 278 kts | 228° |
| 2026-05-03 21:08 | -25.79616 | -48.64793 | 7933 ft | 277 kts | 228° |
| 2026-05-03 21:08 | -25.80973 | -48.66317 | 7633 ft | 278 kts | 221° |
| 2026-05-03 21:08 | -25.82553 | -48.67513 | 7343 ft | 279 kts | 212° |
| 2026-05-03 21:09 | -25.84226 | -48.68607 | 7042 ft | 279 kts | 212° |
| 2026-05-03 21:09 | -25.85897 | -48.69704 | 6751 ft | 279 kts | 213° |
| 2026-05-03 21:09 | -25.87574 | -48.70796 | 6441 ft | 279 kts | 211° |
| 2026-05-03 21:09 | -25.89272 | -48.71847 | 6140 ft | 280 kts | 210° |
| 2026-05-03 21:10 | -25.90991 | -48.72882 | 5841 ft | 281 kts | 209° |
| 2026-05-03 21:10 | -25.92710 | -48.73913 | 5546 ft | 281 kts | 209° |
| 2026-05-03 21:10 | -25.94427 | -48.74945 | 5249 ft | 279 kts | 209° |
| 2026-05-03 21:10 | -25.96135 | -48.75975 | 4948 ft | 280 kts | 209° |
| 2026-05-03 21:11 | -25.97827 | -48.76997 | 4648 ft | 274 kts | 208° |
| 2026-05-03 21:11 | -25.99469 | -48.77989 | 4503 ft | 261 kts | 208° |
| 2026-05-03 21:11 | -26.01030 | -48.78935 | 4273 ft | 254 kts | 208° |
| 2026-05-03 21:11 | -26.02583 | -48.79877 | 3853 ft | 250 kts | 207° |
| 2026-05-03 21:12 | -26.04081 | -48.80786 | 3566 ft | 238 kts | 207° |
| 2026-05-03 21:12 | -26.05481 | -48.81636 | 3313 ft | 226 kts | 207° |
| 2026-05-03 21:12 | -26.06833 | -48.82449 | 3083 ft | 214 kts | 203° |
| 2026-05-03 21:12 | -26.08177 | -48.82963 | 2879 ft | 197 kts | 193° |
| 2026-05-03 21:13 | -26.09460 | -48.83362 | 2659 ft | 188 kts | 193° |
| 2026-05-03 21:13 | -26.10698 | -48.83749 | 2453 ft | 182 kts | 193° |
| 2026-05-03 21:13 | -26.11891 | -48.84121 | 2262 ft | 173 kts | 193° |
| 2026-05-03 21:13 | -26.13021 | -48.84475 | 2083 ft | 164 kts | 194° |
| 2026-05-03 21:14 | -26.14090 | -48.84811 | 1907 ft | 154 kts | 194° |
| 2026-05-03 21:14 | -26.15095 | -48.85125 | 1750 ft | 147 kts | 194° |
| 2026-05-03 21:14 | -26.16089 | -48.85346 | 1575 ft | 144 kts | 182° |
| 2026-05-03 21:14 | -26.17079 | -48.85298 | 1382 ft | 142 kts | 168° |
| 2026-05-03 21:15 | -26.18018 | -48.84995 | 1221 ft | 139 kts | 156° |
| 2026-05-03 21:15 | -26.18858 | -48.84463 | 1018 ft | 138 kts | 143° |
| 2026-05-03 21:15 | -26.19558 | -48.83743 | 830 ft | 136 kts | 130° |
| 2026-05-03 21:15 | -26.20150 | -48.82924 | 649 ft | 136 kts | 128° |
| 2026-05-03 21:16 | -26.20743 | -48.82105 | 471 ft | 135 kts | 128° |
| 2026-05-03 21:16 | -26.21318 | -48.81293 | 295 ft | 136 kts | 128° |
| 2026-05-03 21:16 | -26.21911 | -48.80475 | 91 ft | 136 kts | 129° |
| 2026-05-03 21:16 | -26.22471 | -48.79705 | 23 ft | 101 kts | 128° |
| 2026-05-03 21:17 | -26.22722 | -48.79354 | 25 ft | 26 kts | 129° |
| 2026-05-03 21:17 | -26.22801 | -48.79276 | 25 ft | 15 kts | 133° |
| 2026-05-03 21:17 | -26.22753 | -48.79285 | 25 ft | 8 kts | 294° |
| 2026-05-03 21:17 | -26.22724 | -48.79351 | 25 ft | 12 kts | 301° |
| 2026-05-03 21:18 | -26.22665 | -48.79435 | 24 ft | 16 kts | 308° |
| 2026-05-03 21:18 | -26.22615 | -48.79504 | 23 ft | 18 kts | 310° |
| 2026-05-03 21:18 | -26.22531 | -48.79622 | 25 ft | 20 kts | 307° |
| 2026-05-03 21:18 | -26.22436 | -48.79750 | 23 ft | 23 kts | 307° |
| 2026-05-03 21:19 | -26.22334 | -48.79893 | 26 ft | 24 kts | 310° |
| 2026-05-03 21:19 | -26.22325 | -48.80015 | 22 ft | 18 kts | 223° |
| 2026-05-03 21:19 | -26.22340 | -48.80100 | 21 ft | 9 kts | 282° |
| 2026-05-03 21:19 | -26.22322 | -48.80162 | 21 ft | 8 kts | 297° |
| 2026-05-03 21:20 | -26.22292 | -48.80209 | 21 ft | 7 kts | 306° |
| 2026-05-03 21:20 | -26.22296 | -48.80270 | 23 ft | 11 kts | 227° |
| 2026-05-03 21:20 | -26.22343 | -48.80255 | 21 ft | 1 kts | 131° |
| 2026-05-03 21:20 | -26.22348 | -48.80248 | 22 ft | 1 kts | 129° |
| 2026-05-03 21:21 | -26.22351 | -48.80243 | 21 ft | 0 kts | 128° |